Time;durP1;ratioP1;P1;durP2;ratioP2;P2;SDS_P1;SDS_P2;PMS_P1;PMS_P2;Temp;Humidity;BMP_temperature;BMP_pressure;BME280_temperature;BME280_humidity;BME280_pressure;Samples;Min_cycle;Max_cycle;Signal;HPM_P1;HPM_P2
2023/04/07 00:00:40;;;;;;;53.53;25.02;;;;;;;;;;5024792;28;20397;-51
2023/04/07 00:03:06;;;;;;;56.25;25.90;;;;;;;;;;5024535;28;20033;-56
2023/04/07 00:05:31;;;;;;;58.20;25.98;;;;;;;;;;5024773;28;20104;-53
2023/04/07 00:07:57;;;;;;;57.63;26.83;;;;;;;;;;5024956;28;20042;-54
2023/04/07 00:10:23;;;;;;;52.15;25.45;;;;;;;;;;5024676;28;20022;-56
2023/04/07 00:12:48;;;;;;;58.63;28.20;;;;;;;;;;5024773;28;20080;-53
2023/04/07 00:15:13;;;;;;;60.92;28.08;;;;;;;;;;5024265;28;20473;-54
2023/04/07 00:17:39;;;;;;;57.08;26.92;;;;;;;;;;5022366;28;20030;-52
2023/04/07 00:20:04;;;;;;;55.40;24.95;;;;;;;;;;5024448;28;20087;-56
2023/04/07 00:22:30;;;;;;;60.85;25.55;;;;;;;;;;5005517;28;20373;-56
2023/04/07 00:24:55;;;;;;;52.47;25.75;;;;;;;;;;5024510;28;20521;-54
2023/04/07 00:27:22;;;;;;;59.10;27.23;;;;;;;;;;5024522;28;20450;-49
2023/04/07 00:29:47;;;;;;;52.58;26.23;;;;;;;;;;5024503;28;20124;-55
2023/04/07 00:32:12;;;;;;;56.40;27.40;;;;;;;;;;5024270;28;20509;-54
2023/04/07 00:34:38;;;;;;;51.95;25.02;;;;;;;;;;5024264;28;20071;-54
2023/04/07 00:37:05;;;;;;;57.03;25.60;;;;;;;;;;5024162;28;20396;-53
2023/04/07 00:39:31;;;;;;;57.35;26.08;;;;;;;;;;5024487;28;20132;-55
2023/04/07 00:41:56;;;;;;;50.15;26.52;;;;;;;;;;5024611;28;20026;-54
2023/04/07 00:44:22;;;;;;;56.42;25.80;;;;;;;;;;5024365;28;20160;-53
2023/04/07 00:46:47;;;;;;;55.47;27.08;;;;;;;;;;5024255;28;20465;-54
2023/04/07 00:49:13;;;;;;;57.22;25.98;;;;;;;;;;5024398;28;20751;-55
2023/04/07 00:51:38;;;;;;;56.22;26.52;;;;;;;;;;5024153;28;20084;-54
2023/04/07 00:54:03;;;;;;;59.88;26.38;;;;;;;;;;5024533;28;20017;-55
2023/04/07 00:56:29;;;;;;;60.00;28.48;;;;;;;;;;5024604;28;20013;-55
2023/04/07 00:58:54;;;;;;;60.10;28.15;;;;;;;;;;5023827;28;20033;-56
2023/04/07 01:01:42;;;;;;;58.50;26.92;;;;;;;;;;5024232;28;20165;-55
2023/04/07 01:04:11;;;;;;;57.33;26.60;;;;;;;;;;5001687;28;20087;-53
2023/04/07 01:06:39;;;;;;;55.30;27.37;;;;;;;;;;5001763;28;20197;-52
2023/04/07 01:09:06;;;;;;;58.38;28.17;;;;;;;;;;5001241;28;20026;-55
2023/04/07 01:11:36;;;;;;;53.53;26.60;;;;;;;;;;5001759;28;20022;-51
2023/04/07 01:14:02;;;;;;;61.22;27.80;;;;;;;;;;5001637;28;20030;-57
2023/04/07 01:16:31;;;;;;;58.30;27.40;;;;;;;;;;5001231;28;20037;-51
2023/04/07 01:19:00;;;;;;;60.97;28.75;;;;;;;;;;5001799;28;20025;-54
2023/04/07 01:21:27;;;;;;;54.03;26.20;;;;;;;;;;5001151;28;20092;-53
2023/04/07 01:24:11;;;;;;;58.65;28.17;;;;;;;;;;5001288;28;20018;-56
2023/04/07 01:26:37;;;;;;;57.78;27.42;;;;;;;;;;5001262;28;20022;-53
2023/04/07 01:29:21;;;;;;;60.90;27.80;;;;;;;;;;5001251;28;20033;-54
2023/04/07 01:31:47;;;;;;;61.35;28.15;;;;;;;;;;5001380;28;20018;-54
2023/04/07 01:34:14;;;;;;;58.95;27.65;;;;;;;;;;5000891;28;20337;-56
2023/04/07 01:36:40;;;;;;;62.17;28.80;;;;;;;;;;5001349;28;20061;-56
2023/04/07 01:39:06;;;;;;;60.28;28.10;;;;;;;;;;5001136;28;20030;-52
2023/04/07 01:41:32;;;;;;;59.60;27.35;;;;;;;;;;5015597;28;20041;-51
2023/04/07 01:43:57;;;;;;;65.53;29.67;;;;;;;;;;5024298;28;20025;-56
2023/04/07 01:46:23;;;;;;;61.13;29.08;;;;;;;;;;5023973;28;20057;-54
2023/04/07 01:48:50;;;;;;;65.90;30.27;;;;;;;;;;5024798;28;20022;-54
2023/04/07 01:51:16;;;;;;;62.95;29.83;;;;;;;;;;5027429;28;20393;-49
2023/04/07 01:53:41;;;;;;;65.28;30.88;;;;;;;;;;5027380;28;20027;-52
2023/04/07 01:56:07;;;;;;;74.13;30.15;;;;;;;;;;5027296;28;20055;-52
2023/04/07 01:58:32;;;;;;;66.20;31.13;;;;;;;;;;5027408;28;20117;-52
2023/04/07 02:00:57;;;;;;;75.05;31.95;;;;;;;;;;5027474;28;20525;-55
2023/04/07 02:03:25;;;;;;;63.00;30.05;;;;;;;;;;5024321;28;20041;-53
2023/04/07 02:05:53;;;;;;;72.85;30.70;;;;;;;;;;5027504;28;20394;-56
2023/04/07 02:08:20;;;;;;;66.50;30.48;;;;;;;;;;5027075;28;20465;-53
2023/04/07 02:10:46;;;;;;;54.35;26.58;;;;;;;;;;5027013;28;20055;-54
2023/04/07 02:13:14;;;;;;;64.03;29.05;;;;;;;;;;5026816;28;20443;-57
2023/04/07 02:15:39;;;;;;;61.83;28.52;;;;;;;;;;5027061;28;20097;-56
2023/04/07 02:18:06;;;;;;;55.63;28.02;;;;;;;;;;5027556;28;20491;-55
2023/04/07 02:20:34;;;;;;;68.05;31.40;;;;;;;;;;5026676;28;20033;-50
2023/04/07 02:22:59;;;;;;;67.57;29.05;;;;;;;;;;5027431;28;20116;-54
2023/04/07 02:25:25;;;;;;;64.53;29.90;;;;;;;;;;5026644;28;20587;-56
2023/04/07 02:27:51;;;;;;;68.28;30.83;;;;;;;;;;5027140;28;20017;-55
2023/04/07 02:30:16;;;;;;;63.67;30.23;;;;;;;;;;5026500;28;20057;-57
2023/04/07 02:32:41;;;;;;;69.20;32.45;;;;;;;;;;5025413;28;20026;-51
2023/04/07 02:35:07;;;;;;;63.13;30.05;;;;;;;;;;5026708;28;20125;-55
2023/04/07 02:37:32;;;;;;;71.95;32.17;;;;;;;;;;5026369;28;20032;-53
2023/04/07 02:39:57;;;;;;;72.78;31.67;;;;;;;;;;5026537;28;20026;-54
2023/04/07 02:42:23;;;;;;;66.32;30.77;;;;;;;;;;5024254;28;20030;-54
2023/04/07 02:44:49;;;;;;;70.18;31.05;;;;;;;;;;5026574;28;20470;-56
2023/04/07 02:47:14;;;;;;;69.53;32.35;;;;;;;;;;5025143;28;20064;-54
2023/04/07 02:49:40;;;;;;;64.05;31.92;;;;;;;;;;5026438;28;20481;-50
2023/04/07 02:52:05;;;;;;;64.32;30.05;;;;;;;;;;5026679;28;20034;-55
2023/04/07 02:54:30;;;;;;;68.25;30.13;;;;;;;;;;5025227;28;20053;-54
2023/04/07 02:56:56;;;;;;;69.75;31.05;;;;;;;;;;5026174;28;20017;-52
2023/04/07 02:59:21;;;;;;;63.10;29.42;;;;;;;;;;5025982;28;20030;-54
2023/04/07 03:01:46;;;;;;;65.43;27.92;;;;;;;;;;5026386;28;20021;-54
2023/04/07 03:04:12;;;;;;;66.93;29.30;;;;;;;;;;5026445;28;20489;-55
2023/04/07 03:06:37;;;;;;;62.00;28.92;;;;;;;;;;5026249;28;20111;-53
2023/04/07 03:09:02;;;;;;;65.78;29.45;;;;;;;;;;5025625;28;20025;-55
2023/04/07 03:11:27;;;;;;;64.88;31.45;;;;;;;;;;5026131;28;20014;-54
2023/04/07 03:13:53;;;;;;;64.50;28.25;;;;;;;;;;5025957;28;20028;-52
2023/04/07 03:16:18;;;;;;;71.95;29.58;;;;;;;;;;5026089;28;20026;-51
2023/04/07 03:18:44;;;;;;;60.05;28.50;;;;;;;;;;5025744;28;20370;-50
2023/04/07 03:21:09;;;;;;;66.63;29.48;;;;;;;;;;5025920;28;20057;-51
2023/04/07 03:23:35;;;;;;;66.65;30.23;;;;;;;;;;5025764;28;20032;-56
2023/04/07 03:26:00;;;;;;;60.90;28.13;;;;;;;;;;5026051;28;20385;-51
2023/04/07 03:28:25;;;;;;;61.10;30.08;;;;;;;;;;5026047;28;20474;-53
2023/04/07 03:30:50;;;;;;;61.97;27.55;;;;;;;;;;5025289;28;20087;-55
2023/04/07 03:33:16;;;;;;;58.28;28.90;;;;;;;;;;5025987;28;20697;-54
2023/04/07 03:35:41;;;;;;;61.17;28.20;;;;;;;;;;5025484;28;20064;-56
2023/04/07 03:38:07;;;;;;;61.47;28.92;;;;;;;;;;5025798;28;20021;-53
2023/04/07 03:40:32;;;;;;;62.28;29.00;;;;;;;;;;5025830;28;20026;-52
2023/04/07 03:42:57;;;;;;;64.88;29.45;;;;;;;;;;5025723;28;20080;-52
2023/04/07 03:45:23;;;;;;;62.60;30.83;;;;;;;;;;5025586;28;20032;-55
2023/04/07 03:47:48;;;;;;;59.55;29.30;;;;;;;;;;5025569;28;20358;-56
2023/04/07 03:50:13;;;;;;;61.53;30.10;;;;;;;;;;5025244;28;20035;-54
2023/04/07 03:52:39;;;;;;;57.67;27.00;;;;;;;;;;5025910;28;20060;-53
2023/04/07 03:55:04;;;;;;;179.77;69.47;;;;;;;;;;5025654;28;20226;-56
2023/04/07 03:57:30;;;;;;;171.55;63.20;;;;;;;;;;5025402;28;20021;-53
2023/04/07 03:59:55;;;;;;;67.85;32.08;;;;;;;;;;5025650;28;20036;-55
2023/04/07 04:02:20;;;;;;;59.10;28.98;;;;;;;;;;5025438;28;20368;-52
2023/04/07 04:04:46;;;;;;;65.32;29.17;;;;;;;;;;5025606;28;20029;-51
2023/04/07 04:07:11;;;;;;;65.22;29.35;;;;;;;;;;5025105;28;20037;-55
2023/04/07 04:09:36;;;;;;;59.15;27.30;;;;;;;;;;5025249;28;20448;-51
2023/04/07 04:12:01;;;;;;;66.05;29.70;;;;;;;;;;5024885;28;20432;-56
2023/04/07 04:14:27;;;;;;;63.47;28.00;;;;;;;;;;5022415;28;20120;-51
2023/04/07 04:16:52;;;;;;;63.15;29.42;;;;;;;;;;5025099;28;20045;-52
2023/04/07 04:19:17;;;;;;;65.65;27.98;;;;;;;;;;5025122;28;20021;-53
2023/04/07 04:21:43;;;;;;;67.43;30.38;;;;;;;;;;5025247;28;20497;-53
2023/04/07 04:24:08;;;;;;;92.05;40.88;;;;;;;;;;5024994;28;20053;-56
2023/04/07 04:26:33;;;;;;;78.47;33.28;;;;;;;;;;5025048;28;20022;-51
2023/04/07 04:28:59;;;;;;;81.03;36.10;;;;;;;;;;5024956;28;20029;-57
2023/04/07 04:31:24;;;;;;;79.15;32.95;;;;;;;;;;5024697;28;20079;-55
2023/04/07 04:33:49;;;;;;;68.45;31.42;;;;;;;;;;5024940;28;20033;-53
2023/04/07 04:36:15;;;;;;;70.88;31.63;;;;;;;;;;5022183;28;20513;-55
2023/04/07 04:38:40;;;;;;;71.38;31.10;;;;;;;;;;5024702;28;20410;-56
2023/04/07 04:41:05;;;;;;;68.85;29.88;;;;;;;;;;5025172;28;20045;-54
2023/04/07 04:43:31;;;;;;;66.03;31.33;;;;;;;;;;5024871;28;20551;-56
2023/04/07 04:45:56;;;;;;;72.50;31.85;;;;;;;;;;5024747;28;20618;-55
2023/04/07 04:48:21;;;;;;;73.28;32.50;;;;;;;;;;5024616;28;20033;-54
2023/04/07 04:50:47;;;;;;;67.47;30.38;;;;;;;;;;5024360;28;20041;-52
2023/04/07 04:53:12;;;;;;;68.10;31.70;;;;;;;;;;5024285;28;20462;-55
2023/04/07 04:55:39;;;;;;;74.90;30.90;;;;;;;;;;5024711;28;20712;-51
2023/04/07 04:58:05;;;;;;;73.50;32.22;;;;;;;;;;5023509;28;20397;-56
2023/04/07 05:00:30;;;;;;;65.93;31.83;;;;;;;;;;5024238;28;20051;-54
2023/04/07 05:02:55;;;;;;;78.70;31.92;;;;;;;;;;5024684;28;20514;-53
2023/04/07 05:05:21;;;;;;;68.60;32.22;;;;;;;;;;5024205;28;20032;-55
2023/04/07 05:07:46;;;;;;;61.72;29.77;;;;;;;;;;5024391;28;20010;-54
2023/04/07 05:10:11;;;;;;;64.47;31.27;;;;;;;;;;5024326;28;20472;-57
2023/04/07 05:12:37;;;;;;;66.75;31.20;;;;;;;;;;5024413;28;20026;-56
2023/04/07 05:15:02;;;;;;;66.28;30.67;;;;;;;;;;5023956;28;20017;-51
2023/04/07 05:17:27;;;;;;;71.38;31.92;;;;;;;;;;5024183;28;20152;-51
2023/04/07 05:19:52;;;;;;;68.30;31.80;;;;;;;;;;5024014;28;20021;-50
2023/04/07 05:22:18;;;;;;;66.97;31.45;;;;;;;;;;5004896;28;20051;-54
2023/04/07 05:24:43;;;;;;;71.47;32.03;;;;;;;;;;5026705;28;20033;-55
2023/04/07 05:27:08;;;;;;;75.03;33.20;;;;;;;;;;5027941;28;20018;-53
2023/04/07 05:29:33;;;;;;;74.30;33.13;;;;;;;;;;5026837;28;20487;-55
2023/04/07 05:32:00;;;;;;;82.68;34.53;;;;;;;;;;5028287;28;20021;-52
2023/04/07 05:34:26;;;;;;;67.53;32.15;;;;;;;;;;5026619;28;20031;-54
2023/04/07 05:36:51;;;;;;;66.07;32.58;;;;;;;;;;5027463;28;20057;-56
2023/04/07 05:39:16;;;;;;;72.18;31.08;;;;;;;;;;5027985;28;20029;-54
2023/04/07 05:41:42;;;;;;;69.10;32.08;;;;;;;;;;5027729;28;20489;-55
2023/04/07 05:44:07;;;;;;;68.50;31.52;;;;;;;;;;5027956;28;20461;-53
2023/04/07 05:46:32;;;;;;;66.30;30.88;;;;;;;;;;5027846;28;20084;-55
2023/04/07 05:48:57;;;;;;;69.88;31.35;;;;;;;;;;5028060;28;20087;-54
2023/04/07 05:51:23;;;;;;;66.88;30.70;;;;;;;;;;5027132;28;20065;-55
2023/04/07 05:53:48;;;;;;;63.72;29.10;;;;;;;;;;5027319;28;20032;-55
2023/04/07 05:56:13;;;;;;;65.00;28.95;;;;;;;;;;5027698;28;20102;-52
2023/04/07 05:58:39;;;;;;;72.35;32.20;;;;;;;;;;5027482;28;20504;-54
2023/04/07 06:01:04;;;;;;;68.80;31.20;;;;;;;;;;5026987;28;20335;-55
2023/04/07 06:03:30;;;;;;;62.15;30.73;;;;;;;;;;5027007;28;20462;-53
2023/04/07 06:05:57;;;;;;;67.80;32.45;;;;;;;;;;5027700;28;20025;-57
2023/04/07 06:08:22;;;;;;;73.80;31.75;;;;;;;;;;5027093;28;20045;-57
2023/04/07 06:10:47;;;;;;;70.97;31.25;;;;;;;;;;5027099;28;20489;-54
2023/04/07 06:13:13;;;;;;;67.95;30.98;;;;;;;;;;5027038;28;20488;-56
2023/04/07 06:15:38;;;;;;;64.63;30.35;;;;;;;;;;5026855;28;20484;-54
2023/04/07 06:18:03;;;;;;;72.20;31.23;;;;;;;;;;5027129;28;20449;-52
2023/04/07 06:20:29;;;;;;;62.13;29.67;;;;;;;;;;5026753;28;20048;-54
2023/04/07 06:22:54;;;;;;;70.57;31.92;;;;;;;;;;5023873;28;20065;-54
2023/04/07 06:25:20;;;;;;;60.70;28.98;;;;;;;;;;5026733;28;20473;-56
2023/04/07 06:27:45;;;;;;;65.68;30.23;;;;;;;;;;5026867;28;20158;-55
2023/04/07 06:30:11;;;;;;;64.40;30.48;;;;;;;;;;5026832;28;20026;-56
2023/04/07 06:32:36;;;;;;;67.60;30.45;;;;;;;;;;5026733;28;20029;-57
2023/04/07 06:35:02;;;;;;;63.75;30.42;;;;;;;;;;5025934;28;20151;-54
2023/04/07 06:37:27;;;;;;;68.43;30.65;;;;;;;;;;5025084;28;20045;-50
2023/04/07 06:39:52;;;;;;;65.60;30.25;;;;;;;;;;5026676;28;20510;-52
2023/04/07 06:42:18;;;;;;;64.25;30.52;;;;;;;;;;5007343;28;20029;-55
2023/04/07 06:44:43;;;;;;;64.40;30.30;;;;;;;;;;5026507;28;20523;-58
2023/04/07 06:47:08;;;;;;;63.47;28.88;;;;;;;;;;5043941;28;20031;-51
2023/04/07 06:49:34;;;;;;;63.33;28.55;;;;;;;;;;5033486;28;20624;-54
2023/04/07 06:51:59;;;;;;;56.78;28.15;;;;;;;;;;5026326;28;20076;-55
2023/04/07 06:54:24;;;;;;;54.25;26.92;;;;;;;;;;5026582;28;20109;-48
2023/04/07 06:56:50;;;;;;;62.03;29.05;;;;;;;;;;5024969;28;20028;-52
2023/04/07 06:59:15;;;;;;;56.00;25.83;;;;;;;;;;5026292;28;20021;-52
2023/04/07 07:01:41;;;;;;;52.85;26.48;;;;;;;;;;5026439;28;20028;-51
2023/04/07 07:04:06;;;;;;;54.20;27.55;;;;;;;;;;5026754;28;20017;-49
2023/04/07 07:06:31;;;;;;;54.88;26.65;;;;;;;;;;5025847;28;20028;-56
2023/04/07 07:08:57;;;;;;;53.75;27.50;;;;;;;;;;5025692;28;20556;-56
2023/04/07 07:11:22;;;;;;;609.60;153.45;;;;;;;;;;5025849;28;20049;-57
2023/04/07 07:13:47;;;;;;;584.67;144.40;;;;;;;;;;5025788;28;20152;-56
2023/04/07 07:16:13;;;;;;;527.47;147.43;;;;;;;;;;5025653;28;20025;-54
2023/04/07 07:18:38;;;;;;;521.00;148.93;;;;;;;;;;5025723;28;20021;-56
2023/04/07 07:21:04;;;;;;;549.30;150.68;;;;;;;;;;5025438;28;20461;-53
2023/04/07 07:23:29;;;;;;;652.75;163.90;;;;;;;;;;5006212;28;20051;-54
2023/04/07 07:25:54;;;;;;;559.88;152.13;;;;;;;;;;5025592;28;20075;-52
2023/04/07 07:28:20;;;;;;;569.63;155.57;;;;;;;;;;5025598;28;20021;-54
2023/04/07 07:30:46;;;;;;;603.22;156.52;;;;;;;;;;5025597;28;20057;-56
2023/04/07 07:33:11;;;;;;;621.83;158.90;;;;;;;;;;5024993;28;20053;-57
2023/04/07 07:35:36;;;;;;;574.25;159.68;;;;;;;;;;5025044;28;20049;-55
2023/04/07 07:38:02;;;;;;;563.95;156.52;;;;;;;;;;5025024;28;20030;-56
2023/04/07 07:40:27;;;;;;;579.45;155.00;;;;;;;;;;5025356;28;20029;-54
2023/04/07 07:42:54;;;;;;;537.95;167.73;;;;;;;;;;5024864;28;20046;-55
2023/04/07 07:45:19;;;;;;;445.75;154.82;;;;;;;;;;5023844;28;20028;-56
2023/04/07 07:47:44;;;;;;;441.05;146.43;;;;;;;;;;5024405;28;20056;-56
2023/04/07 07:50:10;;;;;;;448.17;152.77;;;;;;;;;;5025082;28;20017;-53
2023/04/07 07:52:35;;;;;;;438.40;151.45;;;;;;;;;;5024917;28;20029;-56
2023/04/07 07:55:00;;;;;;;425.30;144.38;;;;;;;;;;5024648;28;20978;-56
2023/04/07 07:57:26;;;;;;;443.65;147.07;;;;;;;;;;5005689;28;20083;-53
2023/04/07 07:59:52;;;;;;;459.08;155.55;;;;;;;;;;5024481;28;20532;-55
2023/04/07 08:02:17;;;;;;;446.08;147.85;;;;;;;;;;5024773;28;20437;-56
2023/04/07 08:04:43;;;;;;;463.23;171.60;;;;;;;;;;5024748;28;20374;-54
2023/04/07 08:07:08;;;;;;;456.85;164.32;;;;;;;;;;5024314;28;20019;-52
2023/04/07 08:09:34;;;;;;;455.73;160.32;;;;;;;;;;5024868;28;20026;-56
2023/04/07 08:12:00;;;;;;;443.55;162.07;;;;;;;;;;5005407;28;20113;-53
2023/04/07 08:14:25;;;;;;;440.77;156.82;;;;;;;;;;5024522;28;20028;-52
2023/04/07 08:16:50;;;;;;;456.40;164.27;;;;;;;;;;5024204;28;20017;-53
2023/04/07 08:19:16;;;;;;;443.60;160.05;;;;;;;;;;5024382;28;20075;-53
2023/04/07 08:21:41;;;;;;;445.23;163.25;;;;;;;;;;5024184;28;20075;-57
2023/04/07 08:24:08;;;;;;;470.52;159.23;;;;;;;;;;5024613;28;20083;-53
2023/04/07 08:26:33;;;;;;;460.83;161.30;;;;;;;;;;5024278;28;20036;-57
2023/04/07 08:28:58;;;;;;;478.20;156.10;;;;;;;;;;5024213;28;20025;-55
2023/04/07 08:31:24;;;;;;;502.33;157.55;;;;;;;;;;5023950;28;20048;-55
2023/04/07 08:33:52;;;;;;;567.03;173.48;;;;;;;;;;5024480;28;20048;-55
2023/04/07 08:36:18;;;;;;;229.98;122.97;;;;;;;;;;5024131;28;20370;-52
2023/04/07 08:38:44;;;;;;;271.60;133.88;;;;;;;;;;5024268;28;20034;-54
2023/04/07 08:41:11;;;;;;;283.25;137.35;;;;;;;;;;5023992;28;20103;-55
2023/04/07 08:43:37;;;;;;;327.63;148.48;;;;;;;;;;5023958;28;20036;-58
2023/04/07 08:46:03;;;;;;;371.67;150.85;;;;;;;;;;5024134;28;20028;-53
2023/04/07 08:48:32;;;;;;;426.77;159.90;;;;;;;;;;5023903;28;20026;-57
2023/04/07 08:50:59;;;;;;;401.00;150.45;;;;;;;;;;5024184;28;20027;-55
2023/04/07 08:53:28;;;;;;;348.08;141.15;;;;;;;;;;5023926;28;20083;-54
2023/04/07 08:55:53;;;;;;;;;;;;;;;;;;5024444;28;20022;-55
2023/04/07 08:58:19;;;;;;;304.48;126.57;;;;;;;;;;5025963;28;19912;-51
2023/04/07 09:00:47;;;;;;;324.10;132.20;;;;;;;;;;5025158;28;20112;-53
2023/04/07 09:03:13;;;;;;;308.77;134.98;;;;;;;;;;5027714;28;20018;-57
2023/04/07 09:05:38;;;;;;;324.27;137.95;;;;;;;;;;5027740;28;20028;-54
2023/04/07 09:08:04;;;;;;;351.77;145.90;;;;;;;;;;5028194;28;20428;-56
2023/04/07 09:10:29;;;;;;;337.60;137.60;;;;;;;;;;5027630;28;20435;-53
2023/04/07 09:12:56;;;;;;;333.98;139.98;;;;;;;;;;5027473;28;20044;-57
2023/04/07 09:15:22;;;;;;;313.48;135.15;;;;;;;;;;5024645;28;20423;-53
2023/04/07 09:17:47;;;;;;;368.30;140.32;;;;;;;;;;5027360;28;20017;-55
2023/04/07 09:20:13;;;;;;;332.33;134.60;;;;;;;;;;5027530;28;20033;-56
2023/04/07 09:22:41;;;;;;;336.42;133.68;;;;;;;;;;5007950;28;20374;-51
2023/04/07 09:25:17;;;;;;;366.25;133.43;;;;;;;;;;5027361;28;20009;-55
2023/04/07 09:28:01;;;;;;;363.27;134.75;;;;;;;;;;5027073;28;20025;-57
2023/04/07 09:30:30;;;;;;;360.55;134.15;;;;;;;;;;5027131;28;20029;-55
2023/04/07 09:32:56;;;;;;;382.88;139.00;;;;;;;;;;5027454;28;20025;-56
2023/04/07 09:35:22;;;;;;;415.33;145.55;;;;;;;;;;5027348;28;20052;-58
2023/04/07 09:38:20;;;;;;;418.50;142.85;;;;;;;;;;5027076;28;20104;-55
2023/04/07 09:40:47;;;;;;;487.25;161.73;;;;;;;;;;4985042;28;20034;-57
2023/04/07 09:43:16;;;;;;;299.17;134.68;;;;;;;;;;4984752;28;20023;-55
2023/04/07 09:45:41;;;;;;;264.48;127.60;;;;;;;;;;4985094;28;20292;-56
2023/04/07 09:48:07;;;;;;;264.00;131.80;;;;;;;;;;4984634;28;20305;-53
2023/04/07 09:50:36;;;;;;;242.57;133.68;;;;;;;;;;4984856;28;20034;-52
2023/04/07 09:53:02;;;;;;;331.27;141.88;;;;;;;;;;4984475;28;20022;-54
2023/04/07 09:55:27;;;;;;;541.60;173.82;;;;;;;;;;4968317;28;20487;-56
2023/04/07 09:57:54;;;;;;;469.80;158.93;;;;;;;;;;4984689;28;20077;-57
2023/04/07 10:00:20;;;;;;;303.55;137.02;;;;;;;;;;4984733;28;20026;-57
2023/04/07 10:02:46;;;;;;;275.52;137.88;;;;;;;;;;4984602;28;20605;-55
2023/04/07 10:05:12;;;;;;;288.23;142.23;;;;;;;;;;4968160;28;20124;-55
2023/04/07 10:07:37;;;;;;;293.20;144.20;;;;;;;;;;4984454;28;20018;-57
2023/04/07 10:10:03;;;;;;;340.55;147.23;;;;;;;;;;4983163;28;20200;-54
2023/04/07 10:12:30;;;;;;;126.63;95.55;;;;;;;;;;4984497;28;20062;-51
2023/04/07 10:14:56;;;;;;;134.73;98.95;;;;;;;;;;4984304;28;20117;-55
2023/04/07 10:17:21;;;;;;;153.23;108.05;;;;;;;;;;5022231;28;20083;-52
2023/04/07 10:19:47;;;;;;;95.10;79.00;;;;;;;;;;5026590;28;20025;-55
2023/04/07 10:22:13;;;;;;;132.60;101.78;;;;;;;;;;5026024;28;20033;-53
2023/04/07 10:24:56;;;;;;;146.77;107.35;;;;;;;;;;5026338;28;20044;-58
2023/04/07 10:27:23;;;;;;;97.32;78.15;;;;;;;;;;5026464;28;20055;-53
2023/04/07 10:29:50;;;;;;;91.13;77.20;;;;;;;;;;5026419;28;20369;-57
2023/04/07 10:32:16;;;;;;;101.10;84.97;;;;;;;;;;5026372;28;20032;-55
2023/04/07 10:34:52;;;;;;;94.82;76.72;;;;;;;;;;5024685;28;20029;-55
2023/04/07 10:37:20;;;;;;;132.63;100.85;;;;;;;;;;5026043;28;20037;-58
2023/04/07 10:39:45;;;;;;;94.55;80.40;;;;;;;;;;5024836;28;20508;-52
2023/04/07 10:42:49;;;;;;;87.78;73.53;;;;;;;;;;5026148;28;20025;-53
2023/04/07 10:45:15;;;;;;;65.95;54.40;;;;;;;;;;4983793;28;20062;-54
2023/04/07 10:47:59;;;;;;;65.55;50.22;;;;;;;;;;4983570;28;20034;-54
2023/04/07 10:50:25;;;;;;;66.05;50.38;;;;;;;;;;4983753;28;20586;-54
2023/04/07 10:53:09;;;;;;;64.63;47.35;;;;;;;;;;4983943;28;20143;-54
2023/04/07 10:55:37;;;;;;;65.45;48.53;;;;;;;;;;4983528;28;20114;-52
2023/04/07 10:58:21;;;;;;;62.05;41.65;;;;;;;;;;4983768;28;20034;-48
2023/04/07 11:00:55;;;;;;;61.08;43.53;;;;;;;;;;4983397;28;20019;-52
2023/04/07 11:03:21;;;;;;;62.38;42.55;;;;;;;;;;4950809;28;20030;-56
2023/04/07 11:05:46;;;;;;;51.58;34.65;;;;;;;;;;4983469;28;20599;-50
2023/04/07 11:08:12;;;;;;;55.55;34.85;;;;;;;;;;4983073;28;20029;-51
2023/04/07 11:10:37;;;;;;;55.92;36.15;;;;;;;;;;4982903;28;20189;-55
2023/04/07 11:13:06;;;;;;;51.70;37.85;;;;;;;;;;4983304;28;20478;-52
2023/04/07 11:15:33;;;;;;;49.67;33.17;;;;;;;;;;4994879;28;20066;-54
2023/04/07 11:18:11;;;;;;;45.42;28.13;;;;;;;;;;5024116;28;20401;-51
2023/04/07 11:20:41;;;;;;;50.92;27.05;;;;;;;;;;5022792;28;20087;-58
2023/04/07 11:23:06;;;;;;;50.35;29.88;;;;;;;;;;5025442;28;20265;-51
2023/04/07 11:25:32;;;;;;;55.30;30.25;;;;;;;;;;5024689;28;20052;-56
2023/04/07 11:27:58;;;;;;;51.05;34.38;;;;;;;;;;5025450;28;20532;-56
2023/04/07 11:30:23;;;;;;;50.22;33.47;;;;;;;;;;5025209;28;20484;-54
2023/04/07 11:32:49;;;;;;;47.75;30.95;;;;;;;;;;5024846;28;20033;-48
2023/04/07 11:35:15;;;;;;;54.97;35.15;;;;;;;;;;5024664;28;20056;-53
2023/04/07 11:37:41;;;;;;;52.35;28.52;;;;;;;;;;5005835;28;20041;-55
2023/04/07 11:40:07;;;;;;;59.38;34.47;;;;;;;;;;5023344;28;20443;-54
2023/04/07 11:42:39;;;;;;;57.05;30.48;;;;;;;;;;5024606;28;20017;-54
2023/04/07 11:45:05;;;;;;;48.88;33.28;;;;;;;;;;5024945;28;20074;-53
2023/04/07 11:47:36;;;;;;;49.30;27.08;;;;;;;;;;5024741;28;20033;-55
2023/04/07 11:50:02;;;;;;;49.63;29.15;;;;;;;;;;5024590;28;20026;-54
2023/04/07 11:52:27;;;;;;;51.45;34.55;;;;;;;;;;5005608;28;20389;-53
2023/04/07 11:54:52;;;;;;;50.45;30.60;;;;;;;;;;5024394;28;20036;-57
2023/04/07 11:57:24;;;;;;;61.47;38.75;;;;;;;;;;5024400;28;20040;-54
2023/04/07 11:59:50;;;;;;;59.28;43.85;;;;;;;;;;5024364;28;20027;-55
2023/04/07 12:02:31;;;;;;;56.75;42.53;;;;;;;;;;5024637;28;20014;-51
2023/04/07 12:04:56;;;;;;;55.42;45.60;;;;;;;;;;5024532;28;20393;-54
2023/04/07 12:07:22;;;;;;;55.03;35.80;;;;;;;;;;5024586;28;20475;-53
2023/04/07 12:09:47;;;;;;;60.38;39.53;;;;;;;;;;5023050;28;20032;-49
2023/04/07 12:12:12;;;;;;;55.05;37.70;;;;;;;;;;5024366;28;20496;-53
2023/04/07 12:14:38;;;;;;;56.13;38.50;;;;;;;;;;5024312;28;20021;-50
2023/04/07 12:17:03;;;;;;;61.15;44.50;;;;;;;;;;5024248;28;20017;-55
2023/04/07 12:19:31;;;;;;;58.67;39.53;;;;;;;;;;5024594;28;20402;-52
2023/04/07 12:21:56;;;;;;;60.60;39.70;;;;;;;;;;5024061;28;20017;-54
2023/04/07 12:24:22;;;;;;;52.55;34.58;;;;;;;;;;5024359;28;20400;-55
2023/04/07 12:26:48;;;;;;;56.08;38.95;;;;;;;;;;5024183;28;20021;-54
2023/04/07 12:29:13;;;;;;;53.15;35.25;;;;;;;;;;5024356;28;20060;-54
2023/04/07 12:31:38;;;;;;;52.63;36.00;;;;;;;;;;5024163;28;20023;-56
2023/04/07 12:34:04;;;;;;;54.67;38.40;;;;;;;;;;5023706;28;20029;-54
2023/04/07 12:36:29;;;;;;;62.75;41.42;;;;;;;;;;5024317;28;20073;-51
2023/04/07 12:38:55;;;;;;;61.45;44.47;;;;;;;;;;5024239;28;20080;-57
2023/04/07 12:41:20;;;;;;;56.10;38.70;;;;;;;;;;5022363;28;20037;-54
2023/04/07 12:43:45;;;;;;;56.50;37.70;;;;;;;;;;5024173;28;20017;-52
2023/04/07 12:46:11;;;;;;;52.17;34.20;;;;;;;;;;5023988;28;20029;-55
2023/04/07 12:48:36;;;;;;;51.67;33.75;;;;;;;;;;5021496;28;20083;-52
2023/04/07 12:51:06;;;;;;;53.13;33.47;;;;;;;;;;5023805;28;20415;-55
2023/04/07 12:53:32;;;;;;;60.20;37.28;;;;;;;;;;5023921;28;20025;-55
2023/04/07 12:55:57;;;;;;;58.85;41.80;;;;;;;;;;5023751;28;20452;-54
2023/04/07 12:58:24;;;;;;;58.40;41.40;;;;;;;;;;5023883;28;20021;-53
2023/04/07 13:00:50;;;;;;;59.83;44.92;;;;;;;;;;5023838;28;20096;-55
2023/04/07 13:03:15;;;;;;;62.35;46.45;;;;;;;;;;5024172;28;20112;-53
2023/04/07 13:05:40;;;;;;;59.45;43.55;;;;;;;;;;5023744;28;20032;-54
2023/04/07 13:08:06;;;;;;;63.70;41.03;;;;;;;;;;5004706;28;20057;-56
2023/04/07 13:10:32;;;;;;;58.75;36.95;;;;;;;;;;5021965;28;20492;-52
2023/04/07 13:12:57;;;;;;;58.67;43.67;;;;;;;;;;5023494;28;20021;-55
2023/04/07 13:15:23;;;;;;;63.03;42.20;;;;;;;;;;5023747;28;20332;-55
2023/04/07 13:17:48;;;;;;;58.45;42.30;;;;;;;;;;5023849;28;20013;-53
2023/04/07 13:20:14;;;;;;;57.60;42.30;;;;;;;;;;5023686;28;20076;-51
2023/04/07 13:22:39;;;;;;;67.07;46.22;;;;;;;;;;5004250;28;20362;-51
2023/04/07 13:25:05;;;;;;;68.40;49.67;;;;;;;;;;5023425;28;20065;-56
2023/04/07 13:27:30;;;;;;;56.97;41.83;;;;;;;;;;5023726;28;20636;-52
2023/04/07 13:29:55;;;;;;;57.88;40.80;;;;;;;;;;5023570;28;20029;-54
2023/04/07 13:32:21;;;;;;;68.07;48.42;;;;;;;;;;5023377;28;20029;-55
2023/04/07 13:34:46;;;;;;;71.72;50.28;;;;;;;;;;5022153;28;20032;-50
2023/04/07 13:37:11;;;;;;;65.20;45.95;;;;;;;;;;5023427;28;20037;-53
2023/04/07 13:39:36;;;;;;;70.97;51.78;;;;;;;;;;5023323;28;20521;-55
2023/04/07 13:42:03;;;;;;;68.35;49.28;;;;;;;;;;5023669;28;20025;-56
2023/04/07 13:44:28;;;;;;;63.85;42.15;;;;;;;;;;5023619;28;20018;-56
2023/04/07 13:46:55;;;;;;;64.63;47.45;;;;;;;;;;5027252;28;20068;-53
2023/04/07 13:49:21;;;;;;;60.08;40.92;;;;;;;;;;5026964;28;20469;-55
2023/04/07 13:51:46;;;;;;;58.97;45.40;;;;;;;;;;5026982;28;20359;-55
2023/04/07 13:54:11;;;;;;;68.60;53.65;;;;;;;;;;5027048;28;20387;-54
2023/04/07 13:56:37;;;;;;;65.57;45.83;;;;;;;;;;5026697;28;20025;-51
2023/04/07 13:59:06;;;;;;;61.53;48.60;;;;;;;;;;5027246;28;20068;-56
2023/04/07 14:01:32;;;;;;;64.70;45.63;;;;;;;;;;5027080;28;20655;-53
2023/04/07 14:03:58;;;;;;;59.50;43.22;;;;;;;;;;5025707;28;20061;-52
2023/04/07 14:06:23;;;;;;;62.00;45.85;;;;;;;;;;5024373;28;20128;-55